sensor_id;sensor_type;location;lat;lon;timestamp;P1;durP1;ratioP1;P2;durP2;ratioP2
64085;SDS011;50333;47.436;21.390;2022-09-29T00:01:08;5.85;;;3.20;;
64085;SDS011;50333;47.436;21.390;2022-09-29T00:03:37;3.65;;;2.80;;
64085;SDS011;50333;47.436;21.390;2022-09-29T00:06:08;3.97;;;2.95;;
64085;SDS011;50333;47.436;21.390;2022-09-29T00:08:41;4.30;;;2.60;;
64085;SDS011;50333;47.436;21.390;2022-09-29T00:11:14;3.95;;;2.90;;
64085;SDS011;50333;47.436;21.390;2022-09-29T00:13:44;3.35;;;2.62;;
64085;SDS011;50333;47.436;21.390;2022-09-29T00:16:13;6.15;;;2.95;;
64085;SDS011;50333;47.436;21.390;2022-09-29T00:18:41;5.87;;;3.00;;
64085;SDS011;50333;47.436;21.390;2022-09-29T00:21:13;3.35;;;2.92;;
64085;SDS011;50333;47.436;21.390;2022-09-29T00:23:46;6.28;;;3.15;;
64085;SDS011;50333;47.436;21.390;2022-09-29T00:26:16;6.30;;;3.28;;
64085;SDS011;50333;47.436;21.390;2022-09-29T00:28:58;4.20;;;3.15;;
64085;SDS011;50333;47.436;21.390;2022-09-29T00:31:28;6.30;;;3.50;;
64085;SDS011;50333;47.436;21.390;2022-09-29T00:33:57;5.17;;;3.50;;
64085;SDS011;50333;47.436;21.390;2022-09-29T00:36:25;8.60;;;3.70;;
64085;SDS011;50333;47.436;21.390;2022-09-29T00:38:57;5.45;;;3.65;;
64085;SDS011;50333;47.436;21.390;2022-09-29T00:41:29;5.55;;;3.70;;
64085;SDS011;50333;47.436;21.390;2022-09-29T00:51:50;4.75;;;3.75;;
64085;SDS011;50333;47.436;21.390;2022-09-29T00:54:52;4.70;;;4.03;;
64085;SDS011;50333;47.436;21.390;2022-09-29T00:57:25;5.85;;;4.12;;
64085;SDS011;50333;47.436;21.390;2022-09-29T01:00:02;7.82;;;5.00;;
64085;SDS011;50333;47.436;21.390;2022-09-29T01:02:35;9.35;;;4.97;;
64085;SDS011;50333;47.436;21.390;2022-09-29T01:05:07;4.75;;;3.97;;
64085;SDS011;50333;47.436;21.390;2022-09-29T01:07:40;7.93;;;4.05;;
64085;SDS011;50333;47.436;21.390;2022-09-29T01:10:11;8.07;;;3.90;;
64085;SDS011;50333;47.436;21.390;2022-09-29T01:12:44;6.82;;;4.07;;
64085;SDS011;50333;47.436;21.390;2022-09-29T01:15:14;5.50;;;3.57;;
64085;SDS011;50333;47.436;21.390;2022-09-29T01:17:43;7.00;;;4.28;;
64085;SDS011;50333;47.436;21.390;2022-09-29T01:20:17;4.03;;;3.62;;
64085;SDS011;50333;47.436;21.390;2022-09-29T01:40:30;4.30;;;3.10;;
64085;SDS011;50333;47.436;21.390;2022-09-29T01:43:13;4.80;;;3.37;;
64085;SDS011;50333;47.436;21.390;2022-09-29T01:45:48;4.53;;;2.92;;
64085;SDS011;50333;47.436;21.390;2022-09-29T01:48:21;7.05;;;3.47;;
64085;SDS011;50333;47.436;21.390;2022-09-29T01:50:54;3.35;;;3.03;;
64085;SDS011;50333;47.436;21.390;2022-09-29T01:53:29;4.97;;;3.05;;
64085;SDS011;50333;47.436;21.390;2022-09-29T01:56:04;5.50;;;3.47;;
64085;SDS011;50333;47.436;21.390;2022-09-29T01:58:38;4.45;;;3.50;;
64085;SDS011;50333;47.436;21.390;2022-09-29T02:01:15;8.45;;;4.03;;
64085;SDS011;50333;47.436;21.390;2022-09-29T02:03:52;5.12;;;3.37;;
64085;SDS011;50333;47.436;21.390;2022-09-29T02:06:27;8.95;;;3.53;;
64085;SDS011;50333;47.436;21.390;2022-09-29T02:09:04;5.20;;;3.28;;
64085;SDS011;50333;47.436;21.390;2022-09-29T02:11:38;5.07;;;3.22;;
64085;SDS011;50333;47.436;21.390;2022-09-29T02:16:40;5.15;;;3.30;;
64085;SDS011;50333;47.436;21.390;2022-09-29T02:19:48;7.20;;;3.00;;
64085;SDS011;50333;47.436;21.390;2022-09-29T02:22:09;3.85;;;3.20;;
64085;SDS011;50333;47.436;21.390;2022-09-29T02:24:37;10.02;;;3.10;;
64085;SDS011;50333;47.436;21.390;2022-09-29T02:27:05;6.68;;;3.50;;
64085;SDS011;50333;47.436;21.390;2022-09-29T02:29:33;3.85;;;3.10;;
64085;SDS011;50333;47.436;21.390;2022-09-29T02:32:03;5.18;;;3.35;;
64085;SDS011;50333;47.436;21.390;2022-09-29T02:34:34;3.83;;;3.35;;
64085;SDS011;50333;47.436;21.390;2022-09-29T02:47:29;5.78;;;3.37;;
64085;SDS011;50333;47.436;21.390;2022-09-29T02:59:14;4.87;;;3.25;;
64085;SDS011;50333;47.436;21.390;2022-09-29T03:01:50;6.05;;;3.10;;
64085;SDS011;50333;47.436;21.390;2022-09-29T03:04:20;4.80;;;2.92;;
64085;SDS011;50333;47.436;21.390;2022-09-29T03:06:50;4.22;;;3.20;;
64085;SDS011;50333;47.436;21.390;2022-09-29T03:09:18;4.68;;;3.12;;
64085;SDS011;50333;47.436;21.390;2022-09-29T03:11:46;4.53;;;3.30;;
64085;SDS011;50333;47.436;21.390;2022-09-29T03:14:14;4.12;;;3.05;;
64085;SDS011;50333;47.436;21.390;2022-09-29T03:16:42;9.20;;;3.60;;
64085;SDS011;50333;47.436;21.390;2022-09-29T03:19:10;9.55;;;3.05;;
64085;SDS011;50333;47.436;21.390;2022-09-29T03:21:38;4.22;;;3.28;;
64085;SDS011;50333;47.436;21.390;2022-09-29T03:24:06;7.05;;;3.33;;
64085;SDS011;50333;47.436;21.390;2022-09-29T03:26:33;8.57;;;3.70;;
64085;SDS011;50333;47.436;21.390;2022-09-29T03:29:01;4.20;;;3.10;;
64085;SDS011;50333;47.436;21.390;2022-09-29T03:31:29;5.75;;;3.35;;
64085;SDS011;50333;47.436;21.390;2022-09-29T03:33:57;4.22;;;3.45;;
64085;SDS011;50333;47.436;21.390;2022-09-29T03:36:24;5.45;;;3.60;;
64085;SDS011;50333;47.436;21.390;2022-09-29T03:38:52;7.85;;;3.37;;
64085;SDS011;50333;47.436;21.390;2022-09-29T03:41:20;5.57;;;3.35;;
64085;SDS011;50333;47.436;21.390;2022-09-29T03:43:47;6.82;;;3.42;;
64085;SDS011;50333;47.436;21.390;2022-09-29T03:46:15;5.12;;;3.22;;
64085;SDS011;50333;47.436;21.390;2022-09-29T03:48:43;3.53;;;3.20;;
64085;SDS011;50333;47.436;21.390;2022-09-29T03:51:11;8.50;;;3.60;;
64085;SDS011;50333;47.436;21.390;2022-09-29T03:53:38;4.10;;;3.05;;
64085;SDS011;50333;47.436;21.390;2022-09-29T03:56:06;6.05;;;3.53;;
64085;SDS011;50333;47.436;21.390;2022-09-29T03:58:34;4.18;;;2.97;;
64085;SDS011;50333;47.436;21.390;2022-09-29T04:01:01;5.72;;;3.47;;
64085;SDS011;50333;47.436;21.390;2022-09-29T04:03:29;6.55;;;3.30;;
64085;SDS011;50333;47.436;21.390;2022-09-29T04:05:57;4.05;;;3.28;;
64085;SDS011;50333;47.436;21.390;2022-09-29T04:08:25;5.32;;;3.67;;
64085;SDS011;50333;47.436;21.390;2022-09-29T04:10:53;4.62;;;3.65;;
64085;SDS011;50333;47.436;21.390;2022-09-29T04:13:20;7.90;;;3.58;;
64085;SDS011;50333;47.436;21.390;2022-09-29T04:15:48;5.55;;;3.55;;
64085;SDS011;50333;47.436;21.390;2022-09-29T04:18:16;7.60;;;3.90;;
64085;SDS011;50333;47.436;21.390;2022-09-29T04:20:44;4.90;;;3.15;;
64085;SDS011;50333;47.436;21.390;2022-09-29T04:23:11;5.87;;;3.85;;
64085;SDS011;50333;47.436;21.390;2022-09-29T04:25:40;4.32;;;3.28;;
64085;SDS011;50333;47.436;21.390;2022-09-29T04:28:07;5.43;;;3.75;;
64085;SDS011;50333;47.436;21.390;2022-09-29T04:30:35;10.07;;;3.80;;
64085;SDS011;50333;47.436;21.390;2022-09-29T04:33:03;5.30;;;4.00;;
64085;SDS011;50333;47.436;21.390;2022-09-29T04:35:31;6.35;;;3.90;;
64085;SDS011;50333;47.436;21.390;2022-09-29T04:38:03;4.60;;;3.53;;
64085;SDS011;50333;47.436;21.390;2022-09-29T04:40:31;4.65;;;4.18;;
64085;SDS011;50333;47.436;21.390;2022-09-29T04:43:05;6.25;;;4.25;;
64085;SDS011;50333;47.436;21.390;2022-09-29T04:45:32;6.78;;;3.33;;
64085;SDS011;50333;47.436;21.390;2022-09-29T04:48:00;5.70;;;3.40;;
64085;SDS011;50333;47.436;21.390;2022-09-29T04:50:28;8.20;;;4.10;;
64085;SDS011;50333;47.436;21.390;2022-09-29T04:52:56;4.43;;;3.30;;
64085;SDS011;50333;47.436;21.390;2022-09-29T04:55:23;5.95;;;3.30;;
64085;SDS011;50333;47.436;21.390;2022-09-29T04:57:51;4.75;;;3.65;;
64085;SDS011;50333;47.436;21.390;2022-09-29T05:00:19;6.10;;;3.78;;
64085;SDS011;50333;47.436;21.390;2022-09-29T05:02:47;3.45;;;3.15;;
64085;SDS011;50333;47.436;21.390;2022-09-29T05:05:16;6.07;;;3.30;;
64085;SDS011;50333;47.436;21.390;2022-09-29T05:07:44;5.78;;;3.00;;
64085;SDS011;50333;47.436;21.390;2022-09-29T05:10:12;3.58;;;3.15;;
64085;SDS011;50333;47.436;21.390;2022-09-29T05:12:40;4.57;;;3.25;;
64085;SDS011;50333;47.436;21.390;2022-09-29T05:15:08;3.72;;;3.15;;
64085;SDS011;50333;47.436;21.390;2022-09-29T05:17:36;6.35;;;3.37;;
64085;SDS011;50333;47.436;21.390;2022-09-29T05:20:03;3.62;;;2.90;;
64085;SDS011;50333;47.436;21.390;2022-09-29T05:22:32;4.90;;;3.10;;
64085;SDS011;50333;47.436;21.390;2022-09-29T05:24:59;3.87;;;2.87;;
64085;SDS011;50333;47.436;21.390;2022-09-29T05:27:27;7.28;;;2.97;;
64085;SDS011;50333;47.436;21.390;2022-09-29T05:29:54;5.25;;;2.95;;
64085;SDS011;50333;47.436;21.390;2022-09-29T05:32:22;3.45;;;2.70;;
64085;SDS011;50333;47.436;21.390;2022-09-29T05:34:50;2.53;;;2.30;;
64085;SDS011;50333;47.436;21.390;2022-09-29T05:37:17;6.60;;;2.83;;
64085;SDS011;50333;47.436;21.390;2022-09-29T05:39:45;5.72;;;2.33;;
64085;SDS011;50333;47.436;21.390;2022-09-29T05:42:13;3.08;;;2.78;;
64085;SDS011;50333;47.436;21.390;2022-09-29T05:44:41;6.05;;;2.80;;
64085;SDS011;50333;47.436;21.390;2022-09-29T05:47:09;4.60;;;2.58;;
64085;SDS011;50333;47.436;21.390;2022-09-29T05:49:36;5.55;;;2.87;;
64085;SDS011;50333;47.436;21.390;2022-09-29T05:52:05;12.40;;;2.80;;
64085;SDS011;50333;47.436;21.390;2022-09-29T05:54:33;10.02;;;2.75;;
64085;SDS011;50333;47.436;21.390;2022-09-29T05:57:00;3.60;;;2.67;;
64085;SDS011;50333;47.436;21.390;2022-09-29T05:59:28;4.43;;;2.67;;
64085;SDS011;50333;47.436;21.390;2022-09-29T06:01:56;6.43;;;3.00;;
64085;SDS011;50333;47.436;21.390;2022-09-29T06:04:24;3.78;;;2.75;;
64085;SDS011;50333;47.436;21.390;2022-09-29T06:06:51;3.10;;;2.58;;
64085;SDS011;50333;47.436;21.390;2022-09-29T06:09:19;5.12;;;2.37;;
64085;SDS011;50333;47.436;21.390;2022-09-29T06:11:47;10.48;;;3.08;;
64085;SDS011;50333;47.436;21.390;2022-09-29T06:14:15;3.78;;;2.50;;
64085;SDS011;50333;47.436;21.390;2022-09-29T06:16:42;6.95;;;2.72;;
64085;SDS011;50333;47.436;21.390;2022-09-29T06:19:11;6.47;;;2.20;;
64085;SDS011;50333;47.436;21.390;2022-09-29T06:21:39;8.48;;;2.40;;
64085;SDS011;50333;47.436;21.390;2022-09-29T06:24:07;3.42;;;2.50;;
64085;SDS011;50333;47.436;21.390;2022-09-29T06:26:35;7.32;;;2.80;;
64085;SDS011;50333;47.436;21.390;2022-09-29T06:29:03;3.95;;;2.47;;
64085;SDS011;50333;47.436;21.390;2022-09-29T06:31:31;7.70;;;3.40;;
64085;SDS011;50333;47.436;21.390;2022-09-29T06:34:00;5.18;;;3.33;;
64085;SDS011;50333;47.436;21.390;2022-09-29T06:36:34;6.78;;;2.83;;
64085;SDS011;50333;47.436;21.390;2022-09-29T06:39:24;6.72;;;2.85;;
64085;SDS011;50333;47.436;21.390;2022-09-29T06:41:52;6.30;;;2.72;;
64085;SDS011;50333;47.436;21.390;2022-09-29T06:44:22;6.05;;;2.80;;
64085;SDS011;50333;47.436;21.390;2022-09-29T06:46:51;6.72;;;3.22;;
64085;SDS011;50333;47.436;21.390;2022-09-29T06:49:20;5.55;;;2.87;;
64085;SDS011;50333;47.436;21.390;2022-09-29T06:51:47;3.00;;;2.33;;
64085;SDS011;50333;47.436;21.390;2022-09-29T06:54:16;7.65;;;2.72;;
64085;SDS011;50333;47.436;21.390;2022-09-29T06:56:47;6.47;;;2.47;;
64085;SDS011;50333;47.436;21.390;2022-09-29T06:59:16;4.15;;;2.30;;
64085;SDS011;50333;47.436;21.390;2022-09-29T07:01:44;5.07;;;2.80;;
64085;SDS011;50333;47.436;21.390;2022-09-29T07:04:16;7.87;;;2.45;;
64085;SDS011;50333;47.436;21.390;2022-09-29T07:06:45;5.05;;;2.67;;
64085;SDS011;50333;47.436;21.390;2022-09-29T07:09:13;4.43;;;3.47;;
64085;SDS011;50333;47.436;21.390;2022-09-29T07:11:47;4.53;;;3.12;;
64085;SDS011;50333;47.436;21.390;2022-09-29T07:14:18;5.55;;;3.22;;
64085;SDS011;50333;47.436;21.390;2022-09-29T07:16:48;6.70;;;3.72;;
64085;SDS011;50333;47.436;21.390;2022-09-29T07:19:16;6.22;;;2.80;;
64085;SDS011;50333;47.436;21.390;2022-09-29T07:21:46;4.57;;;2.47;;
64085;SDS011;50333;47.436;21.390;2022-09-29T07:24:14;6.12;;;2.78;;
64085;SDS011;50333;47.436;21.390;2022-09-29T07:26:42;8.52;;;2.62;;
64085;SDS011;50333;47.436;21.390;2022-09-29T07:29:10;6.10;;;2.62;;
64085;SDS011;50333;47.436;21.390;2022-09-29T07:31:43;9.98;;;2.90;;
64085;SDS011;50333;47.436;21.390;2022-09-29T07:34:18;3.70;;;2.50;;
64085;SDS011;50333;47.436;21.390;2022-09-29T07:36:47;5.97;;;2.90;;
64085;SDS011;50333;47.436;21.390;2022-09-29T07:39:15;5.50;;;2.37;;
64085;SDS011;50333;47.436;21.390;2022-09-29T07:41:43;5.62;;;2.22;;
64085;SDS011;50333;47.436;21.390;2022-09-29T07:44:11;6.87;;;2.50;;
64085;SDS011;50333;47.436;21.390;2022-09-29T07:46:39;3.00;;;2.30;;
64085;SDS011;50333;47.436;21.390;2022-09-29T07:49:07;4.10;;;2.40;;
64085;SDS011;50333;47.436;21.390;2022-09-29T07:51:35;4.18;;;2.22;;
64085;SDS011;50333;47.436;21.390;2022-09-29T07:54:03;4.93;;;2.20;;
64085;SDS011;50333;47.436;21.390;2022-09-29T07:56:31;4.95;;;2.60;;
64085;SDS011;50333;47.436;21.390;2022-09-29T07:58:59;4.68;;;2.78;;
64085;SDS011;50333;47.436;21.390;2022-09-29T08:01:28;5.20;;;2.45;;
64085;SDS011;50333;47.436;21.390;2022-09-29T08:03:58;5.93;;;2.85;;
64085;SDS011;50333;47.436;21.390;2022-09-29T08:06:26;6.47;;;2.87;;
64085;SDS011;50333;47.436;21.390;2022-09-29T08:08:54;5.82;;;2.78;;
64085;SDS011;50333;47.436;21.390;2022-09-29T08:11:32;7.55;;;2.70;;
64085;SDS011;50333;47.436;21.390;2022-09-29T08:14:03;9.63;;;3.10;;
64085;SDS011;50333;47.436;21.390;2022-09-29T08:16:32;9.07;;;3.37;;
64085;SDS011;50333;47.436;21.390;2022-09-29T08:19:01;4.65;;;2.70;;
64085;SDS011;50333;47.436;21.390;2022-09-29T08:21:29;7.80;;;3.03;;
64085;SDS011;50333;47.436;21.390;2022-09-29T08:24:03;5.62;;;2.70;;
64085;SDS011;50333;47.436;21.390;2022-09-29T08:26:33;6.12;;;2.60;;
64085;SDS011;50333;47.436;21.390;2022-09-29T08:29:10;4.22;;;2.55;;
64085;SDS011;50333;47.436;21.390;2022-09-29T08:31:43;8.63;;;2.67;;
64085;SDS011;50333;47.436;21.390;2022-09-29T08:34:12;7.47;;;2.28;;
64085;SDS011;50333;47.436;21.390;2022-09-29T08:36:41;4.95;;;2.55;;
64085;SDS011;50333;47.436;21.390;2022-09-29T08:39:09;5.03;;;2.33;;
64085;SDS011;50333;47.436;21.390;2022-09-29T08:44:33;4.45;;;2.70;;
64085;SDS011;50333;47.436;21.390;2022-09-29T08:52:47;7.25;;;2.70;;
64085;SDS011;50333;47.436;21.390;2022-09-29T08:58:07;4.22;;;2.60;;
64085;SDS011;50333;47.436;21.390;2022-09-29T09:00:43;7.75;;;2.78;;
64085;SDS011;50333;47.436;21.390;2022-09-29T09:17:57;4.35;;;2.70;;
64085;SDS011;50333;47.436;21.390;2022-09-29T09:20:40;6.70;;;2.87;;
64085;SDS011;50333;47.436;21.390;2022-09-29T09:23:21;8.63;;;2.65;;
64085;SDS011;50333;47.436;21.390;2022-09-29T09:25:56;4.40;;;2.62;;
64085;SDS011;50333;47.436;21.390;2022-09-29T09:28:31;10.02;;;2.60;;
64085;SDS011;50333;47.436;21.390;2022-09-29T09:31:09;4.15;;;2.78;;
64085;SDS011;50333;47.436;21.390;2022-09-29T09:33:52;4.68;;;2.67;;
64085;SDS011;50333;47.436;21.390;2022-09-29T09:36:46;5.72;;;2.80;;
64085;SDS011;50333;47.436;21.390;2022-09-29T09:42:24;7.20;;;2.83;;
64085;SDS011;50333;47.436;21.390;2022-09-29T09:44:59;7.70;;;2.90;;
64085;SDS011;50333;47.436;21.390;2022-09-29T09:47:36;5.68;;;3.25;;
64085;SDS011;50333;47.436;21.390;2022-09-29T09:50:12;4.37;;;2.78;;
64085;SDS011;50333;47.436;21.390;2022-09-29T09:52:46;3.92;;;2.42;;
64085;SDS011;50333;47.436;21.390;2022-09-29T09:55:20;6.43;;;2.92;;
64085;SDS011;50333;47.436;21.390;2022-09-29T09:58:10;5.20;;;2.70;;
64085;SDS011;50333;47.436;21.390;2022-09-29T10:00:44;6.57;;;2.58;;
64085;SDS011;50333;47.436;21.390;2022-09-29T10:03:31;8.55;;;2.70;;
64085;SDS011;50333;47.436;21.390;2022-09-29T10:05:59;8.25;;;3.60;;
64085;SDS011;50333;47.436;21.390;2022-09-29T10:08:27;7.00;;;2.40;;
64085;SDS011;50333;47.436;21.390;2022-09-29T10:10:58;7.40;;;3.00;;
64085;SDS011;50333;47.436;21.390;2022-09-29T10:13:27;3.25;;;2.22;;
64085;SDS011;50333;47.436;21.390;2022-09-29T10:16:00;5.63;;;2.77;;
64085;SDS011;50333;47.436;21.390;2022-09-29T10:18:46;3.85;;;2.33;;
64085;SDS011;50333;47.436;21.390;2022-09-29T10:21:25;7.50;;;3.00;;
64085;SDS011;50333;47.436;21.390;2022-09-29T10:24:03;9.45;;;3.30;;
64085;SDS011;50333;47.436;21.390;2022-09-29T10:29:01;10.70;;;3.10;;
64085;SDS011;50333;47.436;21.390;2022-09-29T10:31:43;8.00;;;2.92;;
64085;SDS011;50333;47.436;21.390;2022-09-29T10:34:45;5.37;;;2.72;;
64085;SDS011;50333;47.436;21.390;2022-09-29T10:42:44;5.28;;;2.65;;
64085;SDS011;50333;47.436;21.390;2022-09-29T10:48:25;5.95;;;3.17;;
64085;SDS011;50333;47.436;21.390;2022-09-29T10:50:50;9.00;;;2.87;;
64085;SDS011;50333;47.436;21.390;2022-09-29T10:55:58;5.62;;;2.70;;
64085;SDS011;50333;47.436;21.390;2022-09-29T11:01:18;5.05;;;2.92;;
64085;SDS011;50333;47.436;21.390;2022-09-29T11:06:24;7.85;;;2.95;;
64085;SDS011;50333;47.436;21.390;2022-09-29T11:08:58;5.45;;;2.87;;
64085;SDS011;50333;47.436;21.390;2022-09-29T11:15:01;7.35;;;3.37;;
64085;SDS011;50333;47.436;21.390;2022-09-29T11:20:05;13.45;;;3.97;;
64085;SDS011;50333;47.436;21.390;2022-09-29T11:33:54;5.97;;;3.87;;
64085;SDS011;50333;47.436;21.390;2022-09-29T11:45:00;6.95;;;3.83;;
64085;SDS011;50333;47.436;21.390;2022-09-29T11:47:39;8.02;;;3.45;;
64085;SDS011;50333;47.436;21.390;2022-09-29T11:50:18;8.52;;;3.45;;
64085;SDS011;50333;47.436;21.390;2022-09-29T11:56:45;10.23;;;4.30;;
64085;SDS011;50333;47.436;21.390;2022-09-29T12:12:59;7.70;;;4.20;;
64085;SDS011;50333;47.436;21.390;2022-09-29T12:24:01;13.18;;;4.93;;
64085;SDS011;50333;47.436;21.390;2022-09-29T12:26:32;8.43;;;4.60;;
64085;SDS011;50333;47.436;21.390;2022-09-29T12:29:03;7.40;;;5.00;;
64085;SDS011;50333;47.436;21.390;2022-09-29T12:31:53;12.40;;;4.80;;
64085;SDS011;50333;47.436;21.390;2022-09-29T12:34:34;8.70;;;4.93;;
64085;SDS011;50333;47.436;21.390;2022-09-29T12:37:19;7.55;;;5.03;;
64085;SDS011;50333;47.436;21.390;2022-09-29T12:43:22;5.85;;;4.28;;
64085;SDS011;50333;47.436;21.390;2022-09-29T12:46:02;6.37;;;4.72;;
64085;SDS011;50333;47.436;21.390;2022-09-29T12:56:42;5.85;;;4.20;;
64085;SDS011;50333;47.436;21.390;2022-09-29T13:01:55;5.03;;;3.83;;
64085;SDS011;50333;47.436;21.390;2022-09-29T13:07:32;6.03;;;3.70;;
64085;SDS011;50333;47.436;21.390;2022-09-29T13:25:46;3.75;;;2.65;;
64085;SDS011;50333;47.436;21.390;2022-09-29T13:28:17;4.82;;;2.87;;
64085;SDS011;50333;47.436;21.390;2022-09-29T13:30:52;4.05;;;2.90;;
64085;SDS011;50333;47.436;21.390;2022-09-29T13:33:24;2.65;;;2.45;;
64085;SDS011;50333;47.436;21.390;2022-09-29T13:35:53;5.97;;;2.92;;
64085;SDS011;50333;47.436;21.390;2022-09-29T13:38:38;4.12;;;2.90;;
64085;SDS011;50333;47.436;21.390;2022-09-29T13:41:31;6.10;;;3.10;;
64085;SDS011;50333;47.436;21.390;2022-09-29T13:46:43;3.05;;;2.50;;
64085;SDS011;50333;47.436;21.390;2022-09-29T13:59:31;4.18;;;2.30;;
64085;SDS011;50333;47.436;21.390;2022-09-29T14:01:59;4.60;;;2.83;;
64085;SDS011;50333;47.436;21.390;2022-09-29T14:05:33;3.78;;;2.53;;
64085;SDS011;50333;47.436;21.390;2022-09-29T14:07:40;3.87;;;2.35;;
64085;SDS011;50333;47.436;21.390;2022-09-29T14:10:17;3.97;;;2.62;;
64085;SDS011;50333;47.436;21.390;2022-09-29T14:12:50;3.72;;;2.40;;
64085;SDS011;50333;47.436;21.390;2022-09-29T14:15:23;4.03;;;2.60;;
64085;SDS011;50333;47.436;21.390;2022-09-29T14:17:56;3.55;;;2.78;;
64085;SDS011;50333;47.436;21.390;2022-09-29T14:20:30;6.35;;;2.47;;
64085;SDS011;50333;47.436;21.390;2022-09-29T14:23:00;4.45;;;2.70;;
64085;SDS011;50333;47.436;21.390;2022-09-29T14:28:11;3.08;;;1.90;;
64085;SDS011;50333;47.436;21.390;2022-09-29T14:30:46;2.37;;;1.98;;
64085;SDS011;50333;47.436;21.390;2022-09-29T14:33:28;14.15;;;5.00;;
64085;SDS011;50333;47.436;21.390;2022-09-29T14:36:06;15.50;;;6.57;;
64085;SDS011;50333;47.436;21.390;2022-09-29T14:38:44;9.80;;;4.43;;
64085;SDS011;50333;47.436;21.390;2022-09-29T14:41:39;2.90;;;2.50;;
64085;SDS011;50333;47.436;21.390;2022-09-29T14:59:00;2.50;;;2.03;;
64085;SDS011;50333;47.436;21.390;2022-09-29T15:01:30;2.40;;;2.20;;
64085;SDS011;50333;47.436;21.390;2022-09-29T15:04:05;3.85;;;2.58;;
64085;SDS011;50333;47.436;21.390;2022-09-29T15:06:50;2.40;;;2.20;;
64085;SDS011;50333;47.436;21.390;2022-09-29T15:09:19;4.35;;;2.60;;
64085;SDS011;50333;47.436;21.390;2022-09-29T15:14:26;3.62;;;2.80;;
64085;SDS011;50333;47.436;21.390;2022-09-29T15:22:33;13.02;;;10.20;;
64085;SDS011;50333;47.436;21.390;2022-09-29T15:25:35;13.95;;;6.50;;
64085;SDS011;50333;47.436;21.390;2022-09-29T15:30:45;3.67;;;2.95;;
64085;SDS011;50333;47.436;21.390;2022-09-29T15:35:52;4.45;;;3.10;;
64085;SDS011;50333;47.436;21.390;2022-09-29T15:40:51;4.30;;;2.87;;
64085;SDS011;50333;47.436;21.390;2022-09-29T15:43:21;5.68;;;2.83;;
64085;SDS011;50333;47.436;21.390;2022-09-29T15:45:59;4.10;;;3.08;;
64085;SDS011;50333;47.436;21.390;2022-09-29T15:48:29;3.28;;;2.97;;
64085;SDS011;50333;47.436;21.390;2022-09-29T15:50:57;3.05;;;2.80;;
64085;SDS011;50333;47.436;21.390;2022-09-29T15:53:28;4.03;;;2.70;;
64085;SDS011;50333;47.436;21.390;2022-09-29T15:55:57;3.70;;;2.90;;
64085;SDS011;50333;47.436;21.390;2022-09-29T16:00:57;4.20;;;3.22;;
64085;SDS011;50333;47.436;21.390;2022-09-29T16:03:42;5.80;;;3.58;;
64085;SDS011;50333;47.436;21.390;2022-09-29T16:09:01;4.80;;;3.83;;
64085;SDS011;50333;47.436;21.390;2022-09-29T16:11:36;4.90;;;4.00;;
64085;SDS011;50333;47.436;21.390;2022-09-29T16:14:10;7.68;;;3.90;;
64085;SDS011;50333;47.436;21.390;2022-09-29T16:16:46;16.12;;;3.90;;
64085;SDS011;50333;47.436;21.390;2022-09-29T16:21:53;6.87;;;3.85;;
64085;SDS011;50333;47.436;21.390;2022-09-29T16:24:25;4.75;;;3.90;;
64085;SDS011;50333;47.436;21.390;2022-09-29T16:26:56;8.55;;;4.00;;
64085;SDS011;50333;47.436;21.390;2022-09-29T16:31:55;10.82;;;3.87;;
64085;SDS011;50333;47.436;21.390;2022-09-29T16:34:26;4.82;;;3.60;;
64085;SDS011;50333;47.436;21.390;2022-09-29T16:36:57;3.83;;;3.53;;
64085;SDS011;50333;47.436;21.390;2022-09-29T16:39:26;3.97;;;3.58;;
64085;SDS011;50333;47.436;21.390;2022-09-29T16:44:29;9.95;;;4.97;;
64085;SDS011;50333;47.436;21.390;2022-09-29T16:47:14;11.02;;;4.25;;
64085;SDS011;50333;47.436;21.390;2022-09-29T16:55:14;6.78;;;4.30;;
64085;SDS011;50333;47.436;21.390;2022-09-29T17:00:42;5.97;;;4.90;;
64085;SDS011;50333;47.436;21.390;2022-09-29T17:03:10;5.07;;;4.28;;
64085;SDS011;50333;47.436;21.390;2022-09-29T17:05:39;11.93;;;4.80;;
64085;SDS011;50333;47.436;21.390;2022-09-29T17:08:15;5.43;;;4.60;;
64085;SDS011;50333;47.436;21.390;2022-09-29T17:10:48;7.37;;;5.00;;
64085;SDS011;50333;47.436;21.390;2022-09-29T17:13:20;7.68;;;4.90;;
64085;SDS011;50333;47.436;21.390;2022-09-29T17:15:49;9.35;;;4.68;;
64085;SDS011;50333;47.436;21.390;2022-09-29T17:18:19;8.50;;;5.47;;
64085;SDS011;50333;47.436;21.390;2022-09-29T17:20:49;6.55;;;5.40;;
64085;SDS011;50333;47.436;21.390;2022-09-29T17:23:17;6.37;;;5.20;;
64085;SDS011;50333;47.436;21.390;2022-09-29T17:25:45;17.52;;;6.90;;
64085;SDS011;50333;47.436;21.390;2022-09-29T17:28:21;14.00;;;6.85;;
64085;SDS011;50333;47.436;21.390;2022-09-29T17:30:51;8.90;;;6.78;;
64085;SDS011;50333;47.436;21.390;2022-09-29T17:33:22;12.57;;;5.95;;
64085;SDS011;50333;47.436;21.390;2022-09-29T17:35:52;9.85;;;6.40;;
64085;SDS011;50333;47.436;21.390;2022-09-29T17:38:23;15.10;;;7.87;;
64085;SDS011;50333;47.436;21.390;2022-09-29T17:40:57;12.23;;;9.00;;
64085;SDS011;50333;47.436;21.390;2022-09-29T17:43:30;15.38;;;10.07;;
64085;SDS011;50333;47.436;21.390;2022-09-29T17:45:58;15.82;;;9.90;;
64085;SDS011;50333;47.436;21.390;2022-09-29T17:48:27;11.85;;;8.48;;
64085;SDS011;50333;47.436;21.390;2022-09-29T17:50:56;12.02;;;8.38;;
64085;SDS011;50333;47.436;21.390;2022-09-29T17:53:25;9.00;;;6.97;;
64085;SDS011;50333;47.436;21.390;2022-09-29T17:55:55;7.70;;;6.57;;
64085;SDS011;50333;47.436;21.390;2022-09-29T17:58:24;9.38;;;7.55;;
64085;SDS011;50333;47.436;21.390;2022-09-29T18:00:52;9.20;;;6.53;;
64085;SDS011;50333;47.436;21.390;2022-09-29T18:03:21;10.30;;;7.20;;
64085;SDS011;50333;47.436;21.390;2022-09-29T18:05:53;8.10;;;6.80;;
64085;SDS011;50333;47.436;21.390;2022-09-29T18:08:23;8.48;;;6.15;;
64085;SDS011;50333;47.436;21.390;2022-09-29T18:10:53;6.45;;;5.85;;
64085;SDS011;50333;47.436;21.390;2022-09-29T18:13:27;8.68;;;6.22;;
64085;SDS011;50333;47.436;21.390;2022-09-29T18:15:59;7.45;;;6.50;;
64085;SDS011;50333;47.436;21.390;2022-09-29T18:18:28;10.23;;;7.20;;
64085;SDS011;50333;47.436;21.390;2022-09-29T18:20:56;10.85;;;6.70;;
64085;SDS011;50333;47.436;21.390;2022-09-29T18:23:24;10.20;;;6.75;;
64085;SDS011;50333;47.436;21.390;2022-09-29T18:25:51;13.68;;;6.90;;
64085;SDS011;50333;47.436;21.390;2022-09-29T18:28:20;9.73;;;6.30;;
64085;SDS011;50333;47.436;21.390;2022-09-29T18:30:48;6.70;;;6.07;;
64085;SDS011;50333;47.436;21.390;2022-09-29T18:33:19;10.98;;;6.87;;
64085;SDS011;50333;47.436;21.390;2022-09-29T18:35:50;8.15;;;6.57;;
64085;SDS011;50333;47.436;21.390;2022-09-29T18:38:20;10.82;;;6.80;;
64085;SDS011;50333;47.436;21.390;2022-09-29T18:40:51;10.70;;;7.40;;
64085;SDS011;50333;47.436;21.390;2022-09-29T18:43:21;9.82;;;7.90;;
64085;SDS011;50333;47.436;21.390;2022-09-29T18:45:51;10.50;;;7.55;;
64085;SDS011;50333;47.436;21.390;2022-09-29T18:48:21;9.02;;;6.90;;
64085;SDS011;50333;47.436;21.390;2022-09-29T18:50:50;9.50;;;7.10;;
64085;SDS011;50333;47.436;21.390;2022-09-29T18:53:20;8.55;;;7.40;;
64085;SDS011;50333;47.436;21.390;2022-09-29T18:55:48;10.55;;;8.07;;
64085;SDS011;50333;47.436;21.390;2022-09-29T18:58:22;8.05;;;7.25;;
64085;SDS011;50333;47.436;21.390;2022-09-29T19:00:52;8.02;;;7.10;;
64085;SDS011;50333;47.436;21.390;2022-09-29T19:03:22;7.50;;;6.10;;
64085;SDS011;50333;47.436;21.390;2022-09-29T19:05:53;9.70;;;6.78;;
64085;SDS011;50333;47.436;21.390;2022-09-29T19:08:21;6.80;;;6.10;;